Platitera Tonouranon — SX7180 — position and weather

sailwx.info

Track history (hours):
 
Tides and Currents Weather Stations Pressure Air Temp Water Temp Dewpoint Dewpoint Depression Visibility Wind Speed Wind Dir Waves Ship Positions

Platitera Tonouranon

Last reported at 2014-Oct-21 06:33 UTC. Time now 2014-Oct-21 09:00 UTC.
Position N 37°42' E 023°38'.

; draft 3.8 m.

Type: Ship (hazmat cat A). MMSI: 237038200.

Date/timePositionNaut miles runAvg speedWind from/ knotsBaromVisibWave heightAir tempDewpointWater temp
2014-Oct-21 06:33N 37°42' E 023°38'1211.8
2014-Oct-21 05:33N 37°53' E 023°40'3 3.1
2014-Oct-21 04:33N 37°56' E 023°41'2 0.1
2014-Oct-20 16:34N 37°55' E 023°39'1211.7
2014-Oct-20 15:33N 37°48' E 023°28'4 3.5
2014-Oct-20 14:33N 37°45' E 023°26'0 0.0
2014-Oct-20 13:33N 37°45' E 023°26'9 8.3
2014-Oct-20 12:31N 37°36' E 023°26'7 1.4
2014-Oct-20 07:06N 37°38' E 023°35'711.7
2014-Oct-20 06:32N 37°45' E 023°36'1111.6
2014-Oct-20 05:33N 37°55' E 023°40'1 1.0
2014-Oct-20 04:33N 37°56' E 023°41'0 0.0
2014-Oct-19 15:33N 37°56' E 023°41'1110.6
2014-Oct-19 14:34N 37°47' E 023°35'1111.3
2014-Oct-19 13:33N 37°37' E 023°27'3 1.4
2014-Oct-19 11:11N 37°34' E 023°26'711.2
2014-Oct-19 10:33N 37°41' E 023°27'4 3.1
2014-Oct-19 09:14N 37°45' E 023°26'0 0.0
2014-Oct-19 08:29N 37°45' E 023°26'2 2.4
2014-Oct-19 07:31N 37°47' E 023°26'1111.7
2014-Oct-19 06:33N 37°54' E 023°37'4 3.6
2014-Oct-19 05:34N 37°56' E 023°41'0 0.0
2014-Oct-19 04:34N 37°56' E 023°41'1 0.1
2014-Oct-18 16:33N 37°56' E 023°40'1211.6
2014-Oct-18 15:33N 37°48' E 023°28'4 4.2
2014-Oct-18 14:33N 37°45' E 023°26'0 0.0
2014-Oct-18 13:33N 37°45' E 023°26'6 6.3
2014-Oct-18 12:33N 37°39' E 023°26'7 1.2
2014-Oct-18 06:33N 37°43' E 023°32'1111.5
2014-Oct-18 05:33N 37°53' E 023°39'3 3.3
2014-Oct-18 04:33N 37°56' E 023°41'0 0.0
2014-Oct-17 16:33N 37°56' E 023°41'1111.2
2014-Oct-17 15:33N 37°50' E 023°29'6 5.9
2014-Oct-17 14:33N 37°45' E 023°26'0 0.0
2014-Oct-17 13:33N 37°45' E 023°26'5 5.3
2014-Oct-17 12:33N 37°40' E 023°25'8 1.3
2014-Oct-17 06:29N 37°44' E 023°33'1111.6
2014-Oct-17 05:34N 37°54' E 023°38'3 3.5
2014-Oct-17 04:34N 37°56' E 023°41'0 0.0
2014-Oct-16 16:34N 37°56' E 023°41'1211.7
2014-Oct-16 15:33N 37°49' E 023°29'5 5.2
2014-Oct-16 14:33N 37°45' E 023°26'0 0.0
2014-Oct-16 13:34N 37°45' E 023°26'7 6.6
2014-Oct-16 12:34N 37°38' E 023°25'12 6.1
2014-Oct-16 10:33N 37°27' E 023°32'15 3.7
2014-Oct-16 06:32N 37°41' E 023°37'1111.7
2014-Oct-16 05:33N 37°53' E 023°39'4 3.7
2014-Oct-16 04:33N 37°56' E 023°41'0 0.0
2014-Oct-15 16:33N 37°56' E 023°41'1110.9
2014-Oct-15 15:33N 37°49' E 023°30'6 5.0
2014-Oct-15 14:21N 37°45' E 023°26'0 0.0
2014-Oct-15 13:31N 37°45' E 023°26'6 6.6
2014-Oct-15 12:33N 37°38' E 023°25'9 1.5
2014-Oct-15 06:24N 37°42' E 023°36'1011.7
2014-Oct-15 05:33N 37°52' E 023°38'5 4.9
2014-Oct-15 04:33N 37°56' E 023°41'0 0.0
2014-Oct-14 16:33N 37°56' E 023°41'10 9.6
2014-Oct-14 15:33N 37°49' E 023°32'7 6.4
2014-Oct-14 14:26N 37°45' E 023°26'0 0.0
2014-Oct-14 13:14N 37°45' E 023°26'6 9.4
2014-Oct-14 12:33N 37°38' E 023°25'9 1.5
2014-Oct-14 06:32N 37°40' E 023°37'1111.8
2014-Oct-14 05:33N 37°51' E 023°39'5 5.3
2014-Oct-14 04:34N 37°56' E 023°41'1 0.0
2014-Oct-13 16:33N 37°56' E 023°41'1211.7
2014-Oct-13 15:33N 37°48' E 023°30'5 4.6
2014-Oct-13 14:33N 37°45' E 023°26'0 0.0
2014-Oct-13 13:33N 37°45' E 023°26'7 6.5
2014-Oct-13 12:33N 37°38' E 023°25'10 1.7
2014-Oct-13 06:24N 37°43' E 023°36'1011.6
2014-Oct-13 05:33N 37°53' E 023°39'4 3.7
2014-Oct-13 04:33N 37°56' E 023°41'2 0.2
2014-Oct-12 16:33N 37°55' E 023°39'1211.5
2014-Oct-12 15:34N 37°48' E 023°27'3 3.1
2014-Oct-12 14:33N 37°45' E 023°26'0 0.0
2014-Oct-12 13:24N 37°45' E 023°26'7 8.3
2014-Oct-12 12:33N 37°38' E 023°25'10 1.6
2014-Oct-12 06:27N 37°44' E 023°35'1011.7
2014-Oct-12 05:33N 37°54' E 023°39'3 3.0
2014-Oct-12 04:34N 37°56' E 023°41'0 0.0
2014-Oct-11 17:22N 37°56' E 023°41'5 6.4
2014-Oct-11 16:33N 37°54' E 023°35'1111.5
2014-Oct-11 15:34N 37°46' E 023°25'1 1.1
2014-Oct-11 14:33N 37°45' E 023°26'0 0.0
2014-Oct-11 13:33N 37°45' E 023°26'9 9.1
2014-Oct-11 12:33N 37°36' E 023°26'7 4.6
2014-Oct-11 11:05N 37°29' E 023°29'  
Track history (hours):
 
Tides and Currents Weather Stations Pressure Air Temp Water Temp Dewpoint Dewpoint Depression Visibility Wind Speed Wind Dir Waves Ship Positions

Platitera Tonouranon

Last reported at 2014-Oct-21 06:33 UTC. Time now 2014-Oct-21 09:00 UTC.
Position N 37°42' E 023°38'.

; draft 3.8 m.

Type: Ship (hazmat cat A). MMSI: 237038200.

Date/timePositionNaut miles runAvg speedWind from/ knotsBaromVisibWave heightAir tempDewpointWater temp
2014-Oct-21 06:33N 37°42' E 023°38'1211.8
2014-Oct-21 05:33N 37°53' E 023°40'3 3.1
2014-Oct-21 04:33N 37°56' E 023°41'2 0.1
2014-Oct-20 16:34N 37°55' E 023°39'1211.7
2014-Oct-20 15:33N 37°48' E 023°28'4 3.5
2014-Oct-20 14:33N 37°45' E 023°26'0 0.0
2014-Oct-20 13:33N 37°45' E 023°26'9 8.3
2014-Oct-20 12:31N 37°36' E 023°26'7 1.4
2014-Oct-20 07:06N 37°38' E 023°35'711.7
2014-Oct-20 06:32N 37°45' E 023°36'1111.6
2014-Oct-20 05:33N 37°55' E 023°40'1 1.0
2014-Oct-20 04:33N 37°56' E 023°41'0 0.0
2014-Oct-19 15:33N 37°56' E 023°41'1110.6
2014-Oct-19 14:34N 37°47' E 023°35'1111.3
2014-Oct-19 13:33N 37°37' E 023°27'3 1.4
2014-Oct-19 11:11N 37°34' E 023°26'711.2
2014-Oct-19 10:33N 37°41' E 023°27'4 3.1
2014-Oct-19 09:14N 37°45' E 023°26'0 0.0
2014-Oct-19 08:29N 37°45' E 023°26'2 2.4
2014-Oct-19 07:31N 37°47' E 023°26'1111.7
2014-Oct-19 06:33N 37°54' E 023°37'4 3.6
2014-Oct-19 05:34N 37°56' E 023°41'0 0.0
2014-Oct-19 04:34N 37°56' E 023°41'1 0.1
2014-Oct-18 16:33N 37°56' E 023°40'1211.6
2014-Oct-18 15:33N 37°48' E 023°28'4 4.2
2014-Oct-18 14:33N 37°45' E 023°26'0 0.0
2014-Oct-18 13:33N 37°45' E 023°26'6 6.3
2014-Oct-18 12:33N 37°39' E 023°26'7 1.2
2014-Oct-18 06:33N 37°43' E 023°32'1111.5
2014-Oct-18 05:33N 37°53' E 023°39'3 3.3
2014-Oct-18 04:33N 37°56' E 023°41'0 0.0
2014-Oct-17 16:33N 37°56' E 023°41'1111.2
2014-Oct-17 15:33N 37°50' E 023°29'6 5.9
2014-Oct-17 14:33N 37°45' E 023°26'0 0.0
2014-Oct-17 13:33N 37°45' E 023°26'5 5.3
2014-Oct-17 12:33N 37°40' E 023°25'8 1.3
2014-Oct-17 06:29N 37°44' E 023°33'1111.6
2014-Oct-17 05:34N 37°54' E 023°38'3 3.5
2014-Oct-17 04:34N 37°56' E 023°41'0 0.0
2014-Oct-16 16:34N 37°56' E 023°41'1211.7
2014-Oct-16 15:33N 37°49' E 023°29'5 5.2
2014-Oct-16 14:33N 37°45' E 023°26'0 0.0
2014-Oct-16 13:34N 37°45' E 023°26'7 6.6
2014-Oct-16 12:34N 37°38' E 023°25'12 6.1
2014-Oct-16 10:33N 37°27' E 023°32'15 3.7
2014-Oct-16 06:32N 37°41' E 023°37'1111.7
2014-Oct-16 05:33N 37°53' E 023°39'4 3.7
2014-Oct-16 04:33N 37°56' E 023°41'0 0.0
2014-Oct-15 16:33N 37°56' E 023°41'1110.9
2014-Oct-15 15:33N 37°49' E 023°30'6 5.0
2014-Oct-15 14:21N 37°45' E 023°26'0 0.0
2014-Oct-15 13:31N 37°45' E 023°26'6 6.6
2014-Oct-15 12:33N 37°38' E 023°25'9 1.5
2014-Oct-15 06:24N 37°42' E 023°36'1011.7
2014-Oct-15 05:33N 37°52' E 023°38'5 4.9
2014-Oct-15 04:33N 37°56' E 023°41'0 0.0
2014-Oct-14 16:33N 37°56' E 023°41'10 9.6
2014-Oct-14 15:33N 37°49' E 023°32'7 6.4
2014-Oct-14 14:26N 37°45' E 023°26'0 0.0
2014-Oct-14 13:14N 37°45' E 023°26'6 9.4
2014-Oct-14 12:33N 37°38' E 023°25'9 1.5
2014-Oct-14 06:32N 37°40' E 023°37'1111.8
2014-Oct-14 05:33N 37°51' E 023°39'5 5.3
2014-Oct-14 04:34N 37°56' E 023°41'1 0.0
2014-Oct-13 16:33N 37°56' E 023°41'1211.7
2014-Oct-13 15:33N 37°48' E 023°30'5 4.6
2014-Oct-13 14:33N 37°45' E 023°26'0 0.0
2014-Oct-13 13:33N 37°45' E 023°26'7 6.5
2014-Oct-13 12:33N 37°38' E 023°25'10 1.7
2014-Oct-13 06:24N 37°43' E 023°36'1011.6
2014-Oct-13 05:33N 37°53' E 023°39'4 3.7
2014-Oct-13 04:33N 37°56' E 023°41'2 0.2
2014-Oct-12 16:33N 37°55' E 023°39'1211.5
2014-Oct-12 15:34N 37°48' E 023°27'3 3.1
2014-Oct-12 14:33N 37°45' E 023°26'0 0.0
2014-Oct-12 13:24N 37°45' E 023°26'7 8.3
2014-Oct-12 12:33N 37°38' E 023°25'10 1.6
2014-Oct-12 06:27N 37°44' E 023°35'1011.7
2014-Oct-12 05:33N 37°54' E 023°39'3 3.0
2014-Oct-12 04:34N 37°56' E 023°41'0 0.0
2014-Oct-11 17:22N 37°56' E 023°41'5 6.4
2014-Oct-11 16:33N 37°54' E 023°35'1111.5
2014-Oct-11 15:34N 37°46' E 023°25'1 1.1
2014-Oct-11 14:33N 37°45' E 023°26'0 0.0
2014-Oct-11 13:33N 37°45' E 023°26'9 9.1
2014-Oct-11 12:33N 37°36' E 023°26'7 4.6
2014-Oct-11 11:05N 37°29' E 023°29'  

Dump ship's entire track history